sensor_id;sensor_type;location;lat;lon;timestamp;P1;durP1;ratioP1;P2;durP2;ratioP2
15383;SDS011;7790;53.022;12.968;2024-03-17T00:01:48;2.20;;;0.83;;
15383;SDS011;7790;53.022;12.968;2024-03-17T00:05:54;1.93;;;0.90;;
15383;SDS011;7790;53.022;12.968;2024-03-17T00:09:57;2.47;;;1.13;;
15383;SDS011;7790;53.022;12.968;2024-03-17T00:13:58;1.23;;;0.93;;
15383;SDS011;7790;53.022;12.968;2024-03-17T00:17:58;1.17;;;0.80;;
15383;SDS011;7790;53.022;12.968;2024-03-17T00:21:59;1.93;;;1.00;;
15383;SDS011;7790;53.022;12.968;2024-03-17T00:26:00;1.40;;;0.90;;
15383;SDS011;7790;53.022;12.968;2024-03-17T00:30:01;1.20;;;0.70;;
15383;SDS011;7790;53.022;12.968;2024-03-17T00:34:03;1.43;;;0.80;;
15383;SDS011;7790;53.022;12.968;2024-03-17T00:38:06;1.73;;;1.03;;
15383;SDS011;7790;53.022;12.968;2024-03-17T00:42:10;1.53;;;1.00;;
15383;SDS011;7790;53.022;12.968;2024-03-17T00:46:12;2.17;;;1.00;;
15383;SDS011;7790;53.022;12.968;2024-03-17T00:50:13;2.20;;;1.00;;
15383;SDS011;7790;53.022;12.968;2024-03-17T00:54:13;1.53;;;0.93;;
15383;SDS011;7790;53.022;12.968;2024-03-17T00:58:14;1.00;;;0.80;;
15383;SDS011;7790;53.022;12.968;2024-03-17T01:02:15;1.70;;;1.00;;
15383;SDS011;7790;53.022;12.968;2024-03-17T01:06:19;3.43;;;1.10;;
15383;SDS011;7790;53.022;12.968;2024-03-17T01:10:19;3.10;;;1.00;;
15383;SDS011;7790;53.022;12.968;2024-03-17T01:14:20;3.10;;;1.03;;
15383;SDS011;7790;53.022;12.968;2024-03-17T01:18:21;1.20;;;0.90;;
15383;SDS011;7790;53.022;12.968;2024-03-17T01:22:22;1.67;;;0.83;;
15383;SDS011;7790;53.022;12.968;2024-03-17T01:26:23;1.50;;;0.90;;
15383;SDS011;7790;53.022;12.968;2024-03-17T01:30:24;2.10;;;1.10;;
15383;SDS011;7790;53.022;12.968;2024-03-17T01:34:25;2.13;;;1.00;;
15383;SDS011;7790;53.022;12.968;2024-03-17T01:38:26;1.00;;;0.90;;
15383;SDS011;7790;53.022;12.968;2024-03-17T01:42:26;3.10;;;1.10;;
15383;SDS011;7790;53.022;12.968;2024-03-17T01:46:29;1.83;;;1.00;;
15383;SDS011;7790;53.022;12.968;2024-03-17T01:50:34;1.23;;;0.80;;
15383;SDS011;7790;53.022;12.968;2024-03-17T01:54:36;2.10;;;0.80;;
15383;SDS011;7790;53.022;12.968;2024-03-17T01:58:38;1.57;;;0.87;;
15383;SDS011;7790;53.022;12.968;2024-03-17T02:02:39;1.30;;;0.80;;
15383;SDS011;7790;53.022;12.968;2024-03-17T02:06:40;1.40;;;0.70;;
15383;SDS011;7790;53.022;12.968;2024-03-17T02:10:41;2.27;;;1.03;;
15383;SDS011;7790;53.022;12.968;2024-03-17T02:14:43;3.23;;;1.10;;
15383;SDS011;7790;53.022;12.968;2024-03-17T02:18:44;2.20;;;0.93;;
15383;SDS011;7790;53.022;12.968;2024-03-17T02:22:45;2.40;;;0.90;;
15383;SDS011;7790;53.022;12.968;2024-03-17T02:26:46;1.67;;;0.80;;
15383;SDS011;7790;53.022;12.968;2024-03-17T02:30:46;3.30;;;1.30;;
15383;SDS011;7790;53.022;12.968;2024-03-17T02:34:47;2.63;;;1.07;;
15383;SDS011;7790;53.022;12.968;2024-03-17T02:38:48;5.40;;;0.93;;
15383;SDS011;7790;53.022;12.968;2024-03-17T02:43:08;3.57;;;0.80;;
15383;SDS011;7790;53.022;12.968;2024-03-17T02:47:08;1.53;;;0.90;;
15383;SDS011;7790;53.022;12.968;2024-03-17T02:51:09;0.97;;;0.83;;
15383;SDS011;7790;53.022;12.968;2024-03-17T02:55:11;1.33;;;0.80;;
15383;SDS011;7790;53.022;12.968;2024-03-17T02:59:12;1.00;;;0.60;;
15383;SDS011;7790;53.022;12.968;2024-03-17T03:03:13;1.20;;;0.80;;
15383;SDS011;7790;53.022;12.968;2024-03-17T03:07:14;1.03;;;0.77;;
15383;SDS011;7790;53.022;12.968;2024-03-17T03:11:15;1.40;;;1.00;;
15383;SDS011;7790;53.022;12.968;2024-03-17T03:15:16;2.77;;;1.10;;
15383;SDS011;7790;53.022;12.968;2024-03-17T03:19:18;1.60;;;1.00;;
15383;SDS011;7790;53.022;12.968;2024-03-17T03:23:19;2.20;;;0.90;;
15383;SDS011;7790;53.022;12.968;2024-03-17T03:27:20;1.93;;;0.87;;
15383;SDS011;7790;53.022;12.968;2024-03-17T03:31:21;2.40;;;1.13;;
15383;SDS011;7790;53.022;12.968;2024-03-17T03:35:22;1.87;;;0.97;;
15383;SDS011;7790;53.022;12.968;2024-03-17T03:39:22;2.43;;;1.00;;
15383;SDS011;7790;53.022;12.968;2024-03-17T03:43:23;1.73;;;1.07;;
15383;SDS011;7790;53.022;12.968;2024-03-17T03:47:26;1.23;;;0.80;;
15383;SDS011;7790;53.022;12.968;2024-03-17T03:51:27;1.07;;;0.80;;
15383;SDS011;7790;53.022;12.968;2024-03-17T03:55:28;2.00;;;0.70;;
15383;SDS011;7790;53.022;12.968;2024-03-17T03:59:29;1.67;;;0.80;;
15383;SDS011;7790;53.022;12.968;2024-03-17T04:03:30;2.10;;;0.90;;
15383;SDS011;7790;53.022;12.968;2024-03-17T04:07:31;2.23;;;0.90;;
15383;SDS011;7790;53.022;12.968;2024-03-17T04:11:33;1.17;;;0.67;;
15383;SDS011;7790;53.022;12.968;2024-03-17T04:15:34;1.20;;;0.90;;
15383;SDS011;7790;53.022;12.968;2024-03-17T04:19:35;0.70;;;0.57;;
15383;SDS011;7790;53.022;12.968;2024-03-17T04:23:36;1.90;;;0.87;;
15383;SDS011;7790;53.022;12.968;2024-03-17T04:27:37;2.83;;;0.80;;
15383;SDS011;7790;53.022;12.968;2024-03-17T04:31:38;1.47;;;0.87;;
15383;SDS011;7790;53.022;12.968;2024-03-17T04:35:39;2.37;;;0.80;;
15383;SDS011;7790;53.022;12.968;2024-03-17T04:39:42;1.37;;;0.80;;
15383;SDS011;7790;53.022;12.968;2024-03-17T04:43:43;2.10;;;0.70;;
15383;SDS011;7790;53.022;12.968;2024-03-17T04:47:44;1.63;;;0.90;;
15383;SDS011;7790;53.022;12.968;2024-03-17T04:51:47;2.10;;;0.90;;
15383;SDS011;7790;53.022;12.968;2024-03-17T04:55:48;2.07;;;1.10;;
15383;SDS011;7790;53.022;12.968;2024-03-17T04:59:57;1.00;;;0.80;;
15383;SDS011;7790;53.022;12.968;2024-03-17T05:03:58;1.43;;;1.07;;
15383;SDS011;7790;53.022;12.968;2024-03-17T05:07:59;1.73;;;0.90;;
15383;SDS011;7790;53.022;12.968;2024-03-17T05:12:00;1.53;;;1.00;;
15383;SDS011;7790;53.022;12.968;2024-03-17T05:16:00;1.87;;;1.00;;
15383;SDS011;7790;53.022;12.968;2024-03-17T05:20:02;1.47;;;1.00;;
15383;SDS011;7790;53.022;12.968;2024-03-17T05:24:03;1.10;;;1.00;;
15383;SDS011;7790;53.022;12.968;2024-03-17T05:28:04;1.17;;;0.90;;
15383;SDS011;7790;53.022;12.968;2024-03-17T05:32:05;1.37;;;0.90;;
15383;SDS011;7790;53.022;12.968;2024-03-17T05:36:06;1.73;;;1.10;;
15383;SDS011;7790;53.022;12.968;2024-03-17T05:40:07;1.43;;;1.00;;
15383;SDS011;7790;53.022;12.968;2024-03-17T05:44:12;1.50;;;0.90;;
15383;SDS011;7790;53.022;12.968;2024-03-17T05:48:13;1.20;;;1.10;;
15383;SDS011;7790;53.022;12.968;2024-03-17T05:52:14;1.57;;;0.90;;
15383;SDS011;7790;53.022;12.968;2024-03-17T05:56:15;1.40;;;1.03;;
15383;SDS011;7790;53.022;12.968;2024-03-17T06:00:16;1.90;;;1.10;;
15383;SDS011;7790;53.022;12.968;2024-03-17T06:04:17;3.07;;;1.20;;
15383;SDS011;7790;53.022;12.968;2024-03-17T06:08:17;1.07;;;0.70;;
15383;SDS011;7790;53.022;12.968;2024-03-17T06:12:18;1.23;;;0.83;;
15383;SDS011;7790;53.022;12.968;2024-03-17T06:16:19;2.33;;;0.90;;
15383;SDS011;7790;53.022;12.968;2024-03-17T06:20:21;2.50;;;0.90;;
15383;SDS011;7790;53.022;12.968;2024-03-17T06:24:28;2.63;;;1.13;;
15383;SDS011;7790;53.022;12.968;2024-03-17T06:28:29;3.97;;;1.40;;
15383;SDS011;7790;53.022;12.968;2024-03-17T06:32:30;3.10;;;1.00;;
15383;SDS011;7790;53.022;12.968;2024-03-17T06:36:33;2.87;;;1.10;;
15383;SDS011;7790;53.022;12.968;2024-03-17T06:40:33;4.67;;;1.40;;
15383;SDS011;7790;53.022;12.968;2024-03-17T06:44:34;3.73;;;1.10;;
15383;SDS011;7790;53.022;12.968;2024-03-17T06:48:36;2.03;;;1.13;;
15383;SDS011;7790;53.022;12.968;2024-03-17T06:52:37;2.10;;;1.00;;
15383;SDS011;7790;53.022;12.968;2024-03-17T06:56:38;3.00;;;1.17;;
15383;SDS011;7790;53.022;12.968;2024-03-17T07:00:38;2.53;;;1.27;;
15383;SDS011;7790;53.022;12.968;2024-03-17T07:04:39;2.77;;;1.20;;
15383;SDS011;7790;53.022;12.968;2024-03-17T07:08:40;3.53;;;1.20;;
15383;SDS011;7790;53.022;12.968;2024-03-17T07:12:42;2.17;;;1.30;;
15383;SDS011;7790;53.022;12.968;2024-03-17T07:16:43;1.53;;;1.03;;
15383;SDS011;7790;53.022;12.968;2024-03-17T07:20:44;2.83;;;1.40;;
15383;SDS011;7790;53.022;12.968;2024-03-17T07:24:48;2.00;;;0.93;;
15383;SDS011;7790;53.022;12.968;2024-03-17T07:28:52;2.23;;;1.10;;
15383;SDS011;7790;53.022;12.968;2024-03-17T07:32:53;3.47;;;1.30;;
15383;SDS011;7790;53.022;12.968;2024-03-17T07:36:55;2.17;;;1.00;;
15383;SDS011;7790;53.022;12.968;2024-03-17T07:45:03;2.17;;;1.07;;
15383;SDS011;7790;53.022;12.968;2024-03-17T07:49:04;0.60;;;0.60;;
15383;SDS011;7790;53.022;12.968;2024-03-17T07:53:06;1.63;;;1.00;;
15383;SDS011;7790;53.022;12.968;2024-03-17T07:57:07;1.70;;;1.07;;
15383;SDS011;7790;53.022;12.968;2024-03-17T08:01:10;1.63;;;1.03;;
15383;SDS011;7790;53.022;12.968;2024-03-17T08:05:14;1.67;;;1.00;;
15383;SDS011;7790;53.022;12.968;2024-03-17T08:09:15;2.17;;;1.03;;
15383;SDS011;7790;53.022;12.968;2024-03-17T08:13:19;1.63;;;0.90;;
15383;SDS011;7790;53.022;12.968;2024-03-17T08:17:21;1.37;;;0.80;;
15383;SDS011;7790;53.022;12.968;2024-03-17T08:21:22;1.50;;;0.80;;
15383;SDS011;7790;53.022;12.968;2024-03-17T08:25:23;2.07;;;0.90;;
15383;SDS011;7790;53.022;12.968;2024-03-17T08:29:24;1.33;;;0.90;;
15383;SDS011;7790;53.022;12.968;2024-03-17T08:33:25;2.87;;;1.00;;
15383;SDS011;7790;53.022;12.968;2024-03-17T08:37:26;3.03;;;1.27;;
15383;SDS011;7790;53.022;12.968;2024-03-17T08:41:28;2.13;;;1.03;;
15383;SDS011;7790;53.022;12.968;2024-03-17T08:45:30;4.70;;;0.90;;
15383;SDS011;7790;53.022;12.968;2024-03-17T08:49:31;3.67;;;1.23;;
15383;SDS011;7790;53.022;12.968;2024-03-17T08:53:32;5.93;;;1.43;;
15383;SDS011;7790;53.022;12.968;2024-03-17T08:57:33;3.43;;;1.17;;
15383;SDS011;7790;53.022;12.968;2024-03-17T09:01:34;3.80;;;1.10;;
15383;SDS011;7790;53.022;12.968;2024-03-17T09:05:35;6.37;;;1.33;;
15383;SDS011;7790;53.022;12.968;2024-03-17T09:09:36;7.63;;;1.20;;
15383;SDS011;7790;53.022;12.968;2024-03-17T09:13:37;1.50;;;1.00;;
15383;SDS011;7790;53.022;12.968;2024-03-17T09:17:38;1.63;;;0.90;;
15383;SDS011;7790;53.022;12.968;2024-03-17T09:21:40;1.63;;;1.00;;
15383;SDS011;7790;53.022;12.968;2024-03-17T09:25:41;2.73;;;0.97;;
15383;SDS011;7790;53.022;12.968;2024-03-17T09:29:42;2.53;;;0.80;;
15383;SDS011;7790;53.022;12.968;2024-03-17T09:33:43;1.73;;;1.00;;
15383;SDS011;7790;53.022;12.968;2024-03-17T09:37:47;1.33;;;0.80;;
15383;SDS011;7790;53.022;12.968;2024-03-17T09:41:48;4.17;;;0.87;;
15383;SDS011;7790;53.022;12.968;2024-03-17T09:45:49;3.27;;;0.90;;
15383;SDS011;7790;53.022;12.968;2024-03-17T09:49:54;2.00;;;0.97;;
15383;SDS011;7790;53.022;12.968;2024-03-17T09:53:56;2.37;;;0.80;;
15383;SDS011;7790;53.022;12.968;2024-03-17T09:57:58;2.67;;;0.97;;
15383;SDS011;7790;53.022;12.968;2024-03-17T10:01:59;2.10;;;0.80;;
15383;SDS011;7790;53.022;12.968;2024-03-17T10:06:02;3.77;;;0.77;;
15383;SDS011;7790;53.022;12.968;2024-03-17T10:10:10;2.73;;;1.00;;
15383;SDS011;7790;53.022;12.968;2024-03-17T10:14:16;0.80;;;0.63;;
15383;SDS011;7790;53.022;12.968;2024-03-17T10:18:23;0.77;;;0.70;;
15383;SDS011;7790;53.022;12.968;2024-03-17T10:22:24;1.87;;;0.80;;
15383;SDS011;7790;53.022;12.968;2024-03-17T10:26:25;1.87;;;0.77;;
15383;SDS011;7790;53.022;12.968;2024-03-17T10:30:26;2.17;;;0.80;;
15383;SDS011;7790;53.022;12.968;2024-03-17T10:34:29;1.07;;;0.60;;
15383;SDS011;7790;53.022;12.968;2024-03-17T10:38:37;0.80;;;0.70;;
15383;SDS011;7790;53.022;12.968;2024-03-17T10:42:51;0.63;;;0.60;;
15383;SDS011;7790;53.022;12.968;2024-03-17T10:46:53;0.60;;;0.50;;
15383;SDS011;7790;53.022;12.968;2024-03-17T10:50:55;1.53;;;0.70;;
15383;SDS011;7790;53.022;12.968;2024-03-17T10:54:59;1.87;;;0.57;;
15383;SDS011;7790;53.022;12.968;2024-03-17T10:59:08;1.37;;;1.17;;
15383;SDS011;7790;53.022;12.968;2024-03-17T11:03:10;0.83;;;0.60;;
15383;SDS011;7790;53.022;12.968;2024-03-17T11:07:15;1.53;;;0.50;;
15383;SDS011;7790;53.022;12.968;2024-03-17T11:11:36;0.90;;;0.50;;
15383;SDS011;7790;53.022;12.968;2024-03-17T11:15:40;1.70;;;0.90;;
15383;SDS011;7790;53.022;12.968;2024-03-17T11:19:40;1.60;;;0.80;;
15383;SDS011;7790;53.022;12.968;2024-03-17T11:23:42;1.17;;;0.57;;
15383;SDS011;7790;53.022;12.968;2024-03-17T11:27:44;3.33;;;0.80;;
15383;SDS011;7790;53.022;12.968;2024-03-17T11:31:46;1.83;;;1.00;;
15383;SDS011;7790;53.022;12.968;2024-03-17T11:35:52;1.50;;;0.80;;
15383;SDS011;7790;53.022;12.968;2024-03-17T11:40:25;1.40;;;1.00;;
15383;SDS011;7790;53.022;12.968;2024-03-17T11:44:26;1.07;;;0.80;;
15383;SDS011;7790;53.022;12.968;2024-03-17T11:48:27;2.50;;;1.17;;
15383;SDS011;7790;53.022;12.968;2024-03-17T11:52:29;1.90;;;0.90;;
15383;SDS011;7790;53.022;12.968;2024-03-17T11:56:32;2.70;;;0.90;;
15383;SDS011;7790;53.022;12.968;2024-03-17T12:00:33;1.83;;;0.83;;
15383;SDS011;7790;53.022;12.968;2024-03-17T12:04:38;2.17;;;0.90;;
15383;SDS011;7790;53.022;12.968;2024-03-17T12:08:40;1.93;;;0.83;;
15383;SDS011;7790;53.022;12.968;2024-03-17T12:12:41;1.47;;;1.10;;
15383;SDS011;7790;53.022;12.968;2024-03-17T12:16:51;2.70;;;1.30;;
15383;SDS011;7790;53.022;12.968;2024-03-17T12:20:53;2.33;;;0.77;;
15383;SDS011;7790;53.022;12.968;2024-03-17T12:24:55;1.57;;;0.70;;
15383;SDS011;7790;53.022;12.968;2024-03-17T12:28:58;1.30;;;0.80;;
15383;SDS011;7790;53.022;12.968;2024-03-17T12:32:59;1.73;;;0.73;;
15383;SDS011;7790;53.022;12.968;2024-03-17T12:37:00;1.70;;;1.07;;
15383;SDS011;7790;53.022;12.968;2024-03-17T12:41:02;2.90;;;1.07;;
15383;SDS011;7790;53.022;12.968;2024-03-17T12:45:09;2.17;;;0.83;;
15383;SDS011;7790;53.022;12.968;2024-03-17T12:49:10;1.63;;;1.00;;
15383;SDS011;7790;53.022;12.968;2024-03-17T12:53:15;2.83;;;1.10;;
15383;SDS011;7790;53.022;12.968;2024-03-17T12:57:17;1.43;;;1.00;;
15383;SDS011;7790;53.022;12.968;2024-03-17T13:01:39;2.30;;;1.03;;
15383;SDS011;7790;53.022;12.968;2024-03-17T13:05:40;2.07;;;0.97;;
15383;SDS011;7790;53.022;12.968;2024-03-17T13:09:50;2.13;;;1.60;;
15383;SDS011;7790;53.022;12.968;2024-03-17T13:13:51;2.47;;;1.40;;
15383;SDS011;7790;53.022;12.968;2024-03-17T13:17:53;2.37;;;1.20;;
15383;SDS011;7790;53.022;12.968;2024-03-17T13:21:54;1.40;;;0.90;;
15383;SDS011;7790;53.022;12.968;2024-03-17T13:25:55;1.33;;;0.73;;
15383;SDS011;7790;53.022;12.968;2024-03-17T13:29:56;1.73;;;1.20;;
15383;SDS011;7790;53.022;12.968;2024-03-17T13:33:56;1.30;;;1.10;;
15383;SDS011;7790;53.022;12.968;2024-03-17T13:37:57;1.60;;;1.03;;
15383;SDS011;7790;53.022;12.968;2024-03-17T13:42:02;1.90;;;1.07;;
15383;SDS011;7790;53.022;12.968;2024-03-17T13:46:03;3.13;;;1.20;;
15383;SDS011;7790;53.022;12.968;2024-03-17T13:50:04;1.20;;;1.10;;
15383;SDS011;7790;53.022;12.968;2024-03-17T13:54:10;2.53;;;1.30;;
15383;SDS011;7790;53.022;12.968;2024-03-17T13:58:11;2.43;;;1.00;;
15383;SDS011;7790;53.022;12.968;2024-03-17T14:02:12;3.37;;;1.10;;
15383;SDS011;7790;53.022;12.968;2024-03-17T14:06:14;1.77;;;1.00;;
15383;SDS011;7790;53.022;12.968;2024-03-17T14:10:16;2.47;;;1.17;;
15383;SDS011;7790;53.022;12.968;2024-03-17T14:14:18;1.07;;;0.83;;
15383;SDS011;7790;53.022;12.968;2024-03-17T14:18:19;1.03;;;0.90;;
15383;SDS011;7790;53.022;12.968;2024-03-17T14:22:20;1.93;;;1.00;;
15383;SDS011;7790;53.022;12.968;2024-03-17T14:26:21;2.03;;;1.00;;
15383;SDS011;7790;53.022;12.968;2024-03-17T14:30:23;3.13;;;1.20;;
15383;SDS011;7790;53.022;12.968;2024-03-17T14:34:23;2.10;;;1.13;;
15383;SDS011;7790;53.022;12.968;2024-03-17T14:38:25;2.70;;;1.40;;
15383;SDS011;7790;53.022;12.968;2024-03-17T14:42:26;2.70;;;1.13;;
15383;SDS011;7790;53.022;12.968;2024-03-17T14:46:27;2.20;;;1.00;;
15383;SDS011;7790;53.022;12.968;2024-03-17T14:50:28;2.23;;;0.90;;
15383;SDS011;7790;53.022;12.968;2024-03-17T14:54:29;0.83;;;0.60;;
15383;SDS011;7790;53.022;12.968;2024-03-17T14:58:30;1.57;;;0.97;;
15383;SDS011;7790;53.022;12.968;2024-03-17T15:02:31;1.17;;;0.70;;
15383;SDS011;7790;53.022;12.968;2024-03-17T15:06:32;1.43;;;0.73;;
15383;SDS011;7790;53.022;12.968;2024-03-17T15:10:33;2.13;;;1.10;;
15383;SDS011;7790;53.022;12.968;2024-03-17T15:14:35;1.20;;;0.80;;
15383;SDS011;7790;53.022;12.968;2024-03-17T15:18:37;2.63;;;0.70;;
15383;SDS011;7790;53.022;12.968;2024-03-17T15:22:38;1.27;;;0.70;;
15383;SDS011;7790;53.022;12.968;2024-03-17T15:26:39;1.97;;;0.70;;
15383;SDS011;7790;53.022;12.968;2024-03-17T15:30:40;0.97;;;0.73;;
15383;SDS011;7790;53.022;12.968;2024-03-17T15:34:41;1.17;;;0.70;;
15383;SDS011;7790;53.022;12.968;2024-03-17T15:38:42;1.13;;;0.90;;
15383;SDS011;7790;53.022;12.968;2024-03-17T15:42:47;1.10;;;0.70;;
15383;SDS011;7790;53.022;12.968;2024-03-17T15:46:51;2.17;;;0.80;;
15383;SDS011;7790;53.022;12.968;2024-03-17T15:50:53;0.70;;;0.50;;
15383;SDS011;7790;53.022;12.968;2024-03-17T15:54:56;1.17;;;0.67;;
15383;SDS011;7790;53.022;12.968;2024-03-17T15:58:59;0.97;;;0.67;;
15383;SDS011;7790;53.022;12.968;2024-03-17T16:03:02;0.97;;;0.70;;
15383;SDS011;7790;53.022;12.968;2024-03-17T16:07:05;1.40;;;0.67;;
15383;SDS011;7790;53.022;12.968;2024-03-17T16:11:06;0.97;;;0.60;;
15383;SDS011;7790;53.022;12.968;2024-03-17T16:15:09;1.77;;;0.77;;
15383;SDS011;7790;53.022;12.968;2024-03-17T16:19:10;3.23;;;0.60;;
15383;SDS011;7790;53.022;12.968;2024-03-17T16:23:11;7.27;;;0.80;;
15383;SDS011;7790;53.022;12.968;2024-03-17T16:27:12;1.17;;;0.70;;
15383;SDS011;7790;53.022;12.968;2024-03-17T16:31:14;2.30;;;0.67;;
15383;SDS011;7790;53.022;12.968;2024-03-17T16:35:15;1.27;;;0.57;;
15383;SDS011;7790;53.022;12.968;2024-03-17T16:39:16;1.83;;;0.70;;
15383;SDS011;7790;53.022;12.968;2024-03-17T16:43:20;1.63;;;0.60;;
15383;SDS011;7790;53.022;12.968;2024-03-17T16:47:27;1.10;;;0.80;;
15383;SDS011;7790;53.022;12.968;2024-03-17T16:51:34;1.00;;;0.50;;
15383;SDS011;7790;53.022;12.968;2024-03-17T16:55:35;1.70;;;0.60;;
15383;SDS011;7790;53.022;12.968;2024-03-17T16:59:37;1.80;;;0.70;;
15383;SDS011;7790;53.022;12.968;2024-03-17T17:03:37;0.97;;;0.50;;
15383;SDS011;7790;53.022;12.968;2024-03-17T17:07:39;1.30;;;0.50;;
15383;SDS011;7790;53.022;12.968;2024-03-17T17:11:40;1.67;;;0.70;;
15383;SDS011;7790;53.022;12.968;2024-03-17T17:15:44;3.87;;;0.70;;
15383;SDS011;7790;53.022;12.968;2024-03-17T17:19:46;3.37;;;0.67;;
15383;SDS011;7790;53.022;12.968;2024-03-17T17:23:48;1.93;;;0.67;;
15383;SDS011;7790;53.022;12.968;2024-03-17T17:27:49;1.20;;;0.70;;
15383;SDS011;7790;53.022;12.968;2024-03-17T17:31:50;0.93;;;0.67;;
15383;SDS011;7790;53.022;12.968;2024-03-17T17:35:51;3.90;;;1.20;;
15383;SDS011;7790;53.022;12.968;2024-03-17T17:39:52;1.97;;;1.20;;
15383;SDS011;7790;53.022;12.968;2024-03-17T17:43:53;3.10;;;1.40;;
15383;SDS011;7790;53.022;12.968;2024-03-17T17:47:53;1.63;;;1.37;;
15383;SDS011;7790;53.022;12.968;2024-03-17T17:51:54;2.53;;;1.60;;
15383;SDS011;7790;53.022;12.968;2024-03-17T17:55:55;4.10;;;3.03;;
15383;SDS011;7790;53.022;12.968;2024-03-17T17:59:56;3.03;;;2.40;;
15383;SDS011;7790;53.022;12.968;2024-03-17T18:03:57;5.33;;;2.60;;
15383;SDS011;7790;53.022;12.968;2024-03-17T18:08:00;2.77;;;2.47;;
15383;SDS011;7790;53.022;12.968;2024-03-17T18:12:01;3.33;;;2.53;;
15383;SDS011;7790;53.022;12.968;2024-03-17T18:16:04;2.47;;;2.27;;
15383;SDS011;7790;53.022;12.968;2024-03-17T18:20:09;2.43;;;2.23;;
15383;SDS011;7790;53.022;12.968;2024-03-17T18:24:10;2.67;;;1.97;;
15383;SDS011;7790;53.022;12.968;2024-03-17T18:28:10;3.27;;;2.20;;
15383;SDS011;7790;53.022;12.968;2024-03-17T18:32:11;4.13;;;2.30;;
15383;SDS011;7790;53.022;12.968;2024-03-17T18:36:13;4.93;;;2.60;;
15383;SDS011;7790;53.022;12.968;2024-03-17T18:40:14;2.97;;;2.67;;
15383;SDS011;7790;53.022;12.968;2024-03-17T18:44:18;2.97;;;2.60;;
15383;SDS011;7790;53.022;12.968;2024-03-17T18:48:20;3.10;;;2.43;;
15383;SDS011;7790;53.022;12.968;2024-03-17T18:52:22;2.63;;;2.43;;
15383;SDS011;7790;53.022;12.968;2024-03-17T18:56:24;2.57;;;2.37;;
15383;SDS011;7790;53.022;12.968;2024-03-17T19:00:25;2.27;;;2.07;;
15383;SDS011;7790;53.022;12.968;2024-03-17T19:04:30;2.20;;;2.00;;
15383;SDS011;7790;53.022;12.968;2024-03-17T19:08:31;2.20;;;2.00;;
15383;SDS011;7790;53.022;12.968;2024-03-17T19:12:32;3.87;;;2.20;;
15383;SDS011;7790;53.022;12.968;2024-03-17T19:16:33;2.20;;;2.00;;
15383;SDS011;7790;53.022;12.968;2024-03-17T19:20:34;2.17;;;1.97;;
15383;SDS011;7790;53.022;12.968;2024-03-17T19:24:35;1.87;;;1.77;;
15383;SDS011;7790;53.022;12.968;2024-03-17T19:28:37;1.60;;;1.50;;
15383;SDS011;7790;53.022;12.968;2024-03-17T19:32:41;2.87;;;1.90;;
15383;SDS011;7790;53.022;12.968;2024-03-17T19:36:42;1.67;;;1.50;;
15383;SDS011;7790;53.022;12.968;2024-03-17T19:40:56;2.47;;;2.27;;
15383;SDS011;7790;53.022;12.968;2024-03-17T19:45:00;4.67;;;2.10;;
15383;SDS011;7790;53.022;12.968;2024-03-17T19:49:03;3.53;;;1.50;;
15383;SDS011;7790;53.022;12.968;2024-03-17T19:53:05;2.00;;;1.47;;
15383;SDS011;7790;53.022;12.968;2024-03-17T19:57:06;1.40;;;1.30;;
15383;SDS011;7790;53.022;12.968;2024-03-17T20:01:08;2.30;;;1.40;;
15383;SDS011;7790;53.022;12.968;2024-03-17T20:05:09;1.43;;;1.33;;
15383;SDS011;7790;53.022;12.968;2024-03-17T20:09:10;1.77;;;1.20;;
15383;SDS011;7790;53.022;12.968;2024-03-17T20:13:14;1.10;;;1.07;;
15383;SDS011;7790;53.022;12.968;2024-03-17T20:17:16;2.23;;;1.20;;
15383;SDS011;7790;53.022;12.968;2024-03-17T20:21:17;1.60;;;1.10;;
15383;SDS011;7790;53.022;12.968;2024-03-17T20:25:19;2.77;;;1.30;;
15383;SDS011;7790;53.022;12.968;2024-03-17T20:29:19;1.13;;;1.07;;
15383;SDS011;7790;53.022;12.968;2024-03-17T20:33:20;1.27;;;1.17;;
15383;SDS011;7790;53.022;12.968;2024-03-17T20:37:21;1.53;;;1.17;;
15383;SDS011;7790;53.022;12.968;2024-03-17T20:41:26;1.10;;;1.00;;
15383;SDS011;7790;53.022;12.968;2024-03-17T20:45:28;1.17;;;0.90;;
15383;SDS011;7790;53.022;12.968;2024-03-17T20:49:30;1.17;;;1.07;;
15383;SDS011;7790;53.022;12.968;2024-03-17T20:53:31;1.13;;;0.97;;
15383;SDS011;7790;53.022;12.968;2024-03-17T20:57:32;1.37;;;0.90;;
15383;SDS011;7790;53.022;12.968;2024-03-17T21:01:33;1.27;;;0.90;;
15383;SDS011;7790;53.022;12.968;2024-03-17T21:05:33;1.60;;;1.07;;
15383;SDS011;7790;53.022;12.968;2024-03-17T21:09:36;1.30;;;0.90;;
15383;SDS011;7790;53.022;12.968;2024-03-17T21:13:37;3.93;;;1.10;;
15383;SDS011;7790;53.022;12.968;2024-03-17T21:17:38;1.20;;;1.00;;
15383;SDS011;7790;53.022;12.968;2024-03-17T21:21:39;0.90;;;0.90;;
15383;SDS011;7790;53.022;12.968;2024-03-17T21:25:40;0.80;;;0.80;;
15383;SDS011;7790;53.022;12.968;2024-03-17T21:29:41;1.33;;;0.80;;
15383;SDS011;7790;53.022;12.968;2024-03-17T21:33:42;0.93;;;0.80;;
15383;SDS011;7790;53.022;12.968;2024-03-17T21:37:43;1.00;;;0.90;;
15383;SDS011;7790;53.022;12.968;2024-03-17T21:41:44;1.63;;;0.90;;
15383;SDS011;7790;53.022;12.968;2024-03-17T21:45:44;1.67;;;0.90;;
15383;SDS011;7790;53.022;12.968;2024-03-17T21:49:47;0.70;;;0.70;;
15383;SDS011;7790;53.022;12.968;2024-03-17T21:53:49;2.93;;;0.87;;
15383;SDS011;7790;53.022;12.968;2024-03-17T21:57:51;1.03;;;0.90;;
15383;SDS011;7790;53.022;12.968;2024-03-17T22:01:52;1.47;;;0.90;;
15383;SDS011;7790;53.022;12.968;2024-03-17T22:05:53;2.47;;;1.10;;
15383;SDS011;7790;53.022;12.968;2024-03-17T22:09:53;1.33;;;0.63;;
15383;SDS011;7790;53.022;12.968;2024-03-17T22:13:54;1.03;;;0.80;;
15383;SDS011;7790;53.022;12.968;2024-03-17T22:17:55;1.30;;;0.90;;
15383;SDS011;7790;53.022;12.968;2024-03-17T22:21:56;0.63;;;0.63;;
15383;SDS011;7790;53.022;12.968;2024-03-17T22:25:58;1.00;;;0.90;;
15383;SDS011;7790;53.022;12.968;2024-03-17T22:30:02;0.80;;;0.80;;
15383;SDS011;7790;53.022;12.968;2024-03-17T22:34:04;1.07;;;0.80;;
15383;SDS011;7790;53.022;12.968;2024-03-17T22:38:05;0.77;;;0.77;;
15383;SDS011;7790;53.022;12.968;2024-03-17T22:42:07;0.77;;;0.70;;
15383;SDS011;7790;53.022;12.968;2024-03-17T22:46:09;0.57;;;0.53;;
15383;SDS011;7790;53.022;12.968;2024-03-17T22:50:11;1.90;;;0.73;;
15383;SDS011;7790;53.022;12.968;2024-03-17T22:54:13;0.90;;;0.80;;
15383;SDS011;7790;53.022;12.968;2024-03-17T22:58:23;1.50;;;0.67;;
15383;SDS011;7790;53.022;12.968;2024-03-17T23:02:23;1.23;;;0.70;;
15383;SDS011;7790;53.022;12.968;2024-03-17T23:06:24;0.60;;;0.60;;
15383;SDS011;7790;53.022;12.968;2024-03-17T23:10:25;0.60;;;0.60;;
15383;SDS011;7790;53.022;12.968;2024-03-17T23:14:28;0.77;;;0.63;;
15383;SDS011;7790;53.022;12.968;2024-03-17T23:18:29;0.63;;;0.63;;
15383;SDS011;7790;53.022;12.968;2024-03-17T23:22:31;0.70;;;0.70;;
15383;SDS011;7790;53.022;12.968;2024-03-17T23:26:32;0.50;;;0.50;;
15383;SDS011;7790;53.022;12.968;2024-03-17T23:30:33;2.07;;;0.70;;
15383;SDS011;7790;53.022;12.968;2024-03-17T23:34:34;0.50;;;0.50;;
15383;SDS011;7790;53.022;12.968;2024-03-17T23:38:35;0.50;;;0.50;;
15383;SDS011;7790;53.022;12.968;2024-03-17T23:42:36;0.67;;;0.67;;
15383;SDS011;7790;53.022;12.968;2024-03-17T23:46:37;1.67;;;0.80;;
15383;SDS011;7790;53.022;12.968;2024-03-17T23:50:38;0.70;;;0.70;;
15383;SDS011;7790;53.022;12.968;2024-03-17T23:54:39;0.83;;;0.57;;
15383;SDS011;7790;53.022;12.968;2024-03-17T23:58:39;0.70;;;0.70;;
